sensor_id;sensor_type;location;lat;lon;timestamp;P1;durP1;ratioP1;P2;durP2;ratioP2
1410;SDS011;700;51.906;8.404;2022-12-05T00:03:28;22.47;;;14.50;;
1410;SDS011;700;51.906;8.404;2022-12-05T00:08:29;22.23;;;15.70;;
1410;SDS011;700;51.906;8.404;2022-12-05T00:13:29;22.83;;;15.20;;
1410;SDS011;700;51.906;8.404;2022-12-05T00:18:30;25.47;;;16.67;;
1410;SDS011;700;51.906;8.404;2022-12-05T00:23:32;24.93;;;16.43;;
1410;SDS011;700;51.906;8.404;2022-12-05T00:28:33;22.57;;;15.17;;
1410;SDS011;700;51.906;8.404;2022-12-05T00:33:35;21.70;;;15.50;;
1410;SDS011;700;51.906;8.404;2022-12-05T00:38:38;23.53;;;14.83;;
1410;SDS011;700;51.906;8.404;2022-12-05T00:43:42;23.17;;;15.97;;
1410;SDS011;700;51.906;8.404;2022-12-05T00:48:43;22.20;;;14.77;;
1410;SDS011;700;51.906;8.404;2022-12-05T00:53:45;21.77;;;14.87;;
1410;SDS011;700;51.906;8.404;2022-12-05T00:58:48;24.00;;;15.27;;
1410;SDS011;700;51.906;8.404;2022-12-05T01:03:51;23.00;;;15.43;;
1410;SDS011;700;51.906;8.404;2022-12-05T01:08:54;21.73;;;15.10;;
1410;SDS011;700;51.906;8.404;2022-12-05T01:13:58;20.40;;;13.40;;
1410;SDS011;700;51.906;8.404;2022-12-05T01:19:03;20.30;;;14.03;;
1410;SDS011;700;51.906;8.404;2022-12-05T01:24:10;19.30;;;14.40;;
1410;SDS011;700;51.906;8.404;2022-12-05T01:29:12;18.57;;;12.97;;
1410;SDS011;700;51.906;8.404;2022-12-05T01:34:14;18.33;;;12.40;;
1410;SDS011;700;51.906;8.404;2022-12-05T01:39:17;19.43;;;13.30;;
1410;SDS011;700;51.906;8.404;2022-12-05T01:49:30;18.47;;;13.60;;
1410;SDS011;700;51.906;8.404;2022-12-05T01:54:35;19.50;;;13.37;;
1410;SDS011;700;51.906;8.404;2022-12-05T01:59:40;17.63;;;12.33;;
1410;SDS011;700;51.906;8.404;2022-12-05T02:05:08;17.43;;;12.27;;
1410;SDS011;700;51.906;8.404;2022-12-05T02:10:18;17.10;;;12.30;;
1410;SDS011;700;51.906;8.404;2022-12-05T02:15:27;21.07;;;13.63;;
1410;SDS011;700;51.906;8.404;2022-12-05T02:37:17;18.77;;;13.00;;
1410;SDS011;700;51.906;8.404;2022-12-05T02:42:28;18.17;;;12.53;;
1410;SDS011;700;51.906;8.404;2022-12-05T02:47:37;18.53;;;12.30;;
1410;SDS011;700;51.906;8.404;2022-12-05T02:52:42;17.83;;;12.30;;
1410;SDS011;700;51.906;8.404;2022-12-05T02:57:50;15.60;;;11.27;;
1410;SDS011;700;51.906;8.404;2022-12-05T03:02:58;19.77;;;13.53;;
1410;SDS011;700;51.906;8.404;2022-12-05T03:08:02;17.50;;;12.07;;
1410;SDS011;700;51.906;8.404;2022-12-05T03:13:13;16.83;;;12.63;;
1410;SDS011;700;51.906;8.404;2022-12-05T03:23:36;18.33;;;12.37;;
1410;SDS011;700;51.906;8.404;2022-12-05T03:29:25;16.87;;;12.43;;
1410;SDS011;700;51.906;8.404;2022-12-05T03:34:23;14.03;;;11.70;;
1410;SDS011;700;51.906;8.404;2022-12-05T03:39:48;15.90;;;12.20;;
1410;SDS011;700;51.906;8.404;2022-12-05T03:45:07;17.87;;;12.63;;
1410;SDS011;700;51.906;8.404;2022-12-05T03:50:13;17.30;;;12.20;;
1410;SDS011;700;51.906;8.404;2022-12-05T03:55:37;15.00;;;12.40;;
1410;SDS011;700;51.906;8.404;2022-12-05T04:00:41;15.47;;;12.00;;
1410;SDS011;700;51.906;8.404;2022-12-05T04:05:54;14.83;;;11.30;;
1410;SDS011;700;51.906;8.404;2022-12-05T04:11:10;17.10;;;12.93;;
1410;SDS011;700;51.906;8.404;2022-12-05T04:16:18;16.50;;;12.30;;
1410;SDS011;700;51.906;8.404;2022-12-05T04:21:49;17.07;;;12.83;;
1410;SDS011;700;51.906;8.404;2022-12-05T04:26:55;16.40;;;12.67;;
1410;SDS011;700;51.906;8.404;2022-12-05T04:32:12;19.23;;;13.47;;
1410;SDS011;700;51.906;8.404;2022-12-05T04:37:13;19.13;;;12.80;;
1410;SDS011;700;51.906;8.404;2022-12-05T04:42:21;19.03;;;12.40;;
1410;SDS011;700;51.906;8.404;2022-12-05T04:47:29;16.70;;;12.37;;
1410;SDS011;700;51.906;8.404;2022-12-05T04:52:37;16.77;;;12.37;;
1410;SDS011;700;51.906;8.404;2022-12-05T05:02:50;17.80;;;13.27;;
1410;SDS011;700;51.906;8.404;2022-12-05T05:08:18;17.97;;;12.40;;
1410;SDS011;700;51.906;8.404;2022-12-05T05:13:20;14.60;;;11.40;;
1410;SDS011;700;51.906;8.404;2022-12-05T05:18:23;15.07;;;12.07;;
1410;SDS011;700;51.906;8.404;2022-12-05T05:23:23;18.10;;;13.03;;
1410;SDS011;700;51.906;8.404;2022-12-05T05:28:29;17.33;;;12.80;;
1410;SDS011;700;51.906;8.404;2022-12-05T05:33:30;22.03;;;13.23;;
1410;SDS011;700;51.906;8.404;2022-12-05T05:38:34;19.60;;;13.73;;
1410;SDS011;700;51.906;8.404;2022-12-05T05:43:36;18.57;;;13.70;;
1410;SDS011;700;51.906;8.404;2022-12-05T05:48:40;20.07;;;14.60;;
1410;SDS011;700;51.906;8.404;2022-12-05T05:53:41;19.10;;;14.40;;
1410;SDS011;700;51.906;8.404;2022-12-05T05:58:42;21.73;;;15.33;;
1410;SDS011;700;51.906;8.404;2022-12-05T06:03:47;18.10;;;13.90;;
1410;SDS011;700;51.906;8.404;2022-12-05T06:08:49;23.07;;;15.17;;
1410;SDS011;700;51.906;8.404;2022-12-05T06:13:50;20.73;;;14.50;;
1410;SDS011;700;51.906;8.404;2022-12-05T06:18:53;19.27;;;14.30;;
1410;SDS011;700;51.906;8.404;2022-12-05T06:23:54;23.23;;;15.83;;
1410;SDS011;700;51.906;8.404;2022-12-05T06:28:56;22.50;;;15.03;;
1410;SDS011;700;51.906;8.404;2022-12-05T06:34:00;22.77;;;14.57;;
1410;SDS011;700;51.906;8.404;2022-12-05T06:39:02;20.67;;;15.80;;
1410;SDS011;700;51.906;8.404;2022-12-05T06:44:03;24.17;;;16.00;;
1410;SDS011;700;51.906;8.404;2022-12-05T06:49:04;20.70;;;15.20;;
1410;SDS011;700;51.906;8.404;2022-12-05T06:54:07;20.50;;;14.30;;
1410;SDS011;700;51.906;8.404;2022-12-05T06:59:10;21.23;;;14.70;;
1410;SDS011;700;51.906;8.404;2022-12-05T07:09:24;21.33;;;15.37;;
1410;SDS011;700;51.906;8.404;2022-12-05T07:14:44;21.13;;;15.47;;
1410;SDS011;700;51.906;8.404;2022-12-05T07:19:46;23.13;;;15.67;;
1410;SDS011;700;51.906;8.404;2022-12-05T07:24:50;20.20;;;14.27;;
1410;SDS011;700;51.906;8.404;2022-12-05T07:29:53;22.30;;;15.77;;
1410;SDS011;700;51.906;8.404;2022-12-05T07:34:54;21.57;;;15.30;;
1410;SDS011;700;51.906;8.404;2022-12-05T07:39:55;25.83;;;15.33;;
1410;SDS011;700;51.906;8.404;2022-12-05T07:44:55;23.67;;;14.93;;
1410;SDS011;700;51.906;8.404;2022-12-05T07:49:56;23.47;;;16.43;;
1410;SDS011;700;51.906;8.404;2022-12-05T07:54:56;18.53;;;13.83;;
1410;SDS011;700;51.906;8.404;2022-12-05T07:59:57;18.97;;;14.20;;
1410;SDS011;700;51.906;8.404;2022-12-05T08:05:02;20.70;;;15.27;;
1410;SDS011;700;51.906;8.404;2022-12-05T08:10:03;18.87;;;14.60;;
1410;SDS011;700;51.906;8.404;2022-12-05T08:15:05;16.40;;;12.90;;
1410;SDS011;700;51.906;8.404;2022-12-05T08:20:06;16.80;;;14.00;;
1410;SDS011;700;51.906;8.404;2022-12-05T08:25:09;19.10;;;14.60;;
1410;SDS011;700;51.906;8.404;2022-12-05T08:30:10;18.30;;;12.83;;
1410;SDS011;700;51.906;8.404;2022-12-05T08:35:13;21.07;;;14.40;;
1410;SDS011;700;51.906;8.404;2022-12-05T08:40:13;22.60;;;15.57;;
1410;SDS011;700;51.906;8.404;2022-12-05T08:45:14;16.40;;;13.50;;
1410;SDS011;700;51.906;8.404;2022-12-05T08:50:15;21.73;;;14.73;;
1410;SDS011;700;51.906;8.404;2022-12-05T08:55:18;22.20;;;14.20;;
1410;SDS011;700;51.906;8.404;2022-12-05T09:00:18;21.80;;;13.53;;
1410;SDS011;700;51.906;8.404;2022-12-05T09:05:20;16.63;;;13.13;;
1410;SDS011;700;51.906;8.404;2022-12-05T09:10:26;21.70;;;14.47;;
1410;SDS011;700;51.906;8.404;2022-12-05T09:15:27;17.63;;;12.70;;
1410;SDS011;700;51.906;8.404;2022-12-05T09:20:27;15.60;;;11.70;;
1410;SDS011;700;51.906;8.404;2022-12-05T09:25:28;15.00;;;12.07;;
1410;SDS011;700;51.906;8.404;2022-12-05T09:30:31;16.27;;;12.13;;
1410;SDS011;700;51.906;8.404;2022-12-05T09:35:32;17.80;;;11.90;;
1410;SDS011;700;51.906;8.404;2022-12-05T09:40:36;14.23;;;11.90;;
1410;SDS011;700;51.906;8.404;2022-12-05T09:45:45;12.87;;;11.50;;
1410;SDS011;700;51.906;8.404;2022-12-05T09:51:00;16.33;;;11.60;;
1410;SDS011;700;51.906;8.404;2022-12-05T10:07:24;14.97;;;12.40;;
1410;SDS011;700;51.906;8.404;2022-12-05T10:17:30;17.50;;;12.57;;
1410;SDS011;700;51.906;8.404;2022-12-05T10:28:02;15.53;;;12.93;;
1410;SDS011;700;51.906;8.404;2022-12-05T10:33:26;18.03;;;12.97;;
1410;SDS011;700;51.906;8.404;2022-12-05T10:38:34;17.73;;;14.13;;
1410;SDS011;700;51.906;8.404;2022-12-05T10:43:35;18.63;;;13.80;;
1410;SDS011;700;51.906;8.404;2022-12-05T10:48:40;19.03;;;13.60;;
1410;SDS011;700;51.906;8.404;2022-12-05T10:58:55;16.67;;;12.27;;
1410;SDS011;700;51.906;8.404;2022-12-05T11:04:00;18.07;;;12.77;;
1410;SDS011;700;51.906;8.404;2022-12-05T11:09:20;13.80;;;12.30;;
1410;SDS011;700;51.906;8.404;2022-12-05T11:14:27;13.50;;;10.73;;
1410;SDS011;700;51.906;8.404;2022-12-05T11:24:35;16.23;;;11.53;;
1410;SDS011;700;51.906;8.404;2022-12-05T11:29:39;17.10;;;12.10;;
1410;SDS011;700;51.906;8.404;2022-12-05T11:34:41;13.97;;;11.80;;
1410;SDS011;700;51.906;8.404;2022-12-05T11:39:48;17.80;;;12.20;;
1410;SDS011;700;51.906;8.404;2022-12-05T11:55:42;11.20;;;10.00;;
1410;SDS011;700;51.906;8.404;2022-12-05T12:00:56;9.60;;;8.60;;
1410;SDS011;700;51.906;8.404;2022-12-05T12:11:35;10.57;;;9.47;;
1410;SDS011;700;51.906;8.404;2022-12-05T12:17:02;9.63;;;8.63;;
1410;SDS011;700;51.906;8.404;2022-12-05T12:27:53;8.53;;;7.63;;
1410;SDS011;700;51.906;8.404;2022-12-05T12:33:19;10.00;;;8.67;;
1410;SDS011;700;51.906;8.404;2022-12-05T13:15:17;7.60;;;6.80;;
1410;SDS011;700;51.906;8.404;2022-12-05T13:20:24;8.77;;;7.83;;
1410;SDS011;700;51.906;8.404;2022-12-05T13:25:29;8.77;;;7.37;;
1410;SDS011;700;51.906;8.404;2022-12-05T13:30:33;9.57;;;7.10;;
1410;SDS011;700;51.906;8.404;2022-12-05T13:36:08;9.13;;;8.00;;
1410;SDS011;700;51.906;8.404;2022-12-05T13:41:38;9.47;;;8.40;;
1410;SDS011;700;51.906;8.404;2022-12-05T13:47:02;10.23;;;8.80;;
1410;SDS011;700;51.906;8.404;2022-12-05T13:52:07;11.73;;;10.03;;
1410;SDS011;700;51.906;8.404;2022-12-05T14:07:42;9.90;;;8.90;;
1410;SDS011;700;51.906;8.404;2022-12-05T14:12:55;13.20;;;11.00;;
1410;SDS011;700;51.906;8.404;2022-12-05T14:18:04;11.50;;;9.43;;
1410;SDS011;700;51.906;8.404;2022-12-05T14:34:36;18.00;;;14.10;;
1410;SDS011;700;51.906;8.404;2022-12-05T14:39:52;12.73;;;10.70;;
1410;SDS011;700;51.906;8.404;2022-12-05T14:44:57;12.67;;;11.03;;
1410;SDS011;700;51.906;8.404;2022-12-05T14:55:31;11.53;;;9.90;;
1410;SDS011;700;51.906;8.404;2022-12-05T15:00:37;11.73;;;9.87;;
1410;SDS011;700;51.906;8.404;2022-12-05T15:05:37;11.50;;;9.87;;
1410;SDS011;700;51.906;8.404;2022-12-05T15:10:39;11.17;;;10.07;;
1410;SDS011;700;51.906;8.404;2022-12-05T15:15:43;12.87;;;11.50;;
1410;SDS011;700;51.906;8.404;2022-12-05T15:20:47;10.80;;;9.73;;
1410;SDS011;700;51.906;8.404;2022-12-05T15:26:01;12.40;;;10.20;;
1410;SDS011;700;51.906;8.404;2022-12-05T15:31:07;11.50;;;10.33;;
1410;SDS011;700;51.906;8.404;2022-12-05T15:36:12;10.37;;;8.93;;
1410;SDS011;700;51.906;8.404;2022-12-05T15:41:16;12.60;;;9.73;;
1410;SDS011;700;51.906;8.404;2022-12-05T15:46:18;9.57;;;8.60;;
1410;SDS011;700;51.906;8.404;2022-12-05T15:51:27;12.53;;;10.67;;
1410;SDS011;700;51.906;8.404;2022-12-05T15:56:34;10.70;;;9.60;;
1410;SDS011;700;51.906;8.404;2022-12-05T16:01:48;10.47;;;9.47;;
1410;SDS011;700;51.906;8.404;2022-12-05T16:06:54;12.43;;;11.10;;
1410;SDS011;700;51.906;8.404;2022-12-05T16:16:59;11.50;;;9.53;;
1410;SDS011;700;51.906;8.404;2022-12-05T16:27:20;10.60;;;9.50;;
1410;SDS011;700;51.906;8.404;2022-12-05T16:32:23;14.73;;;11.30;;
1410;SDS011;700;51.906;8.404;2022-12-05T16:37:29;12.80;;;11.23;;
1410;SDS011;700;51.906;8.404;2022-12-05T16:42:32;11.77;;;10.50;;
1410;SDS011;700;51.906;8.404;2022-12-05T16:52:40;14.07;;;11.33;;
1410;SDS011;700;51.906;8.404;2022-12-05T16:57:41;17.77;;;12.70;;
1410;SDS011;700;51.906;8.404;2022-12-05T17:02:41;18.63;;;12.10;;
1410;SDS011;700;51.906;8.404;2022-12-05T17:07:42;17.87;;;13.10;;
1410;SDS011;700;51.906;8.404;2022-12-05T17:12:43;15.13;;;13.53;;
1410;SDS011;700;51.906;8.404;2022-12-05T17:17:44;16.50;;;13.43;;
1410;SDS011;700;51.906;8.404;2022-12-05T17:22:48;16.10;;;13.30;;
1410;SDS011;700;51.906;8.404;2022-12-05T17:27:48;16.50;;;13.10;;
1410;SDS011;700;51.906;8.404;2022-12-05T17:32:53;13.87;;;11.00;;
1410;SDS011;700;51.906;8.404;2022-12-05T17:37:54;16.07;;;12.50;;
1410;SDS011;700;51.906;8.404;2022-12-05T17:42:55;15.93;;;12.27;;
1410;SDS011;700;51.906;8.404;2022-12-05T17:47:56;16.67;;;13.20;;
1410;SDS011;700;51.906;8.404;2022-12-05T17:53:01;15.70;;;13.27;;
1410;SDS011;700;51.906;8.404;2022-12-05T17:58:02;11.50;;;10.40;;
1410;SDS011;700;51.906;8.404;2022-12-05T18:03:03;12.17;;;10.77;;
1410;SDS011;700;51.906;8.404;2022-12-05T18:08:04;12.97;;;11.00;;
1410;SDS011;700;51.906;8.404;2022-12-05T18:13:05;10.83;;;9.73;;
1410;SDS011;700;51.906;8.404;2022-12-05T18:18:17;14.13;;;11.80;;
1410;SDS011;700;51.906;8.404;2022-12-05T18:23:18;10.50;;;9.40;;
1410;SDS011;700;51.906;8.404;2022-12-05T18:28:21;10.40;;;9.30;;
1410;SDS011;700;51.906;8.404;2022-12-05T18:33:24;12.93;;;10.40;;
1410;SDS011;700;51.906;8.404;2022-12-05T18:38:24;10.93;;;9.90;;
1410;SDS011;700;51.906;8.404;2022-12-05T18:43:25;11.43;;;10.23;;
1410;SDS011;700;51.906;8.404;2022-12-05T18:48:33;17.10;;;9.20;;
1410;SDS011;700;51.906;8.404;2022-12-05T18:53:39;11.70;;;10.20;;
1410;SDS011;700;51.906;8.404;2022-12-05T18:58:42;11.20;;;10.10;;
1410;SDS011;700;51.906;8.404;2022-12-05T19:03:43;11.67;;;10.47;;
1410;SDS011;700;51.906;8.404;2022-12-05T19:08:43;9.07;;;8.17;;
1410;SDS011;700;51.906;8.404;2022-12-05T19:13:44;11.40;;;9.60;;
1410;SDS011;700;51.906;8.404;2022-12-05T19:18:46;10.43;;;9.43;;
1410;SDS011;700;51.906;8.404;2022-12-05T19:23:53;10.10;;;9.20;;
1410;SDS011;700;51.906;8.404;2022-12-05T19:28:55;11.80;;;10.60;;
1410;SDS011;700;51.906;8.404;2022-12-05T19:33:59;14.50;;;10.43;;
1410;SDS011;700;51.906;8.404;2022-12-05T19:39:08;12.40;;;11.20;;
1410;SDS011;700;51.906;8.404;2022-12-05T19:44:28;12.27;;;10.97;;
1410;SDS011;700;51.906;8.404;2022-12-05T19:49:32;17.90;;;14.03;;
1410;SDS011;700;51.906;8.404;2022-12-05T19:54:32;16.53;;;11.43;;
1410;SDS011;700;51.906;8.404;2022-12-05T19:59:35;13.53;;;11.27;;
1410;SDS011;700;51.906;8.404;2022-12-05T20:04:36;13.20;;;11.80;;
1410;SDS011;700;51.906;8.404;2022-12-05T20:09:39;15.77;;;12.87;;
1410;SDS011;700;51.906;8.404;2022-12-05T20:14:39;14.57;;;12.17;;
1410;SDS011;700;51.906;8.404;2022-12-05T20:19:42;14.90;;;12.20;;
1410;SDS011;700;51.906;8.404;2022-12-05T20:24:45;13.60;;;11.90;;
1410;SDS011;700;51.906;8.404;2022-12-05T20:29:48;14.30;;;12.67;;
1410;SDS011;700;51.906;8.404;2022-12-05T20:34:52;17.23;;;14.90;;
1410;SDS011;700;51.906;8.404;2022-12-05T20:39:53;15.10;;;11.60;;
1410;SDS011;700;51.906;8.404;2022-12-05T20:44:56;15.20;;;11.87;;
1410;SDS011;700;51.906;8.404;2022-12-05T20:49:59;15.40;;;12.37;;
1410;SDS011;700;51.906;8.404;2022-12-05T20:55:00;14.87;;;12.30;;
1410;SDS011;700;51.906;8.404;2022-12-05T21:00:00;14.80;;;13.20;;
1410;SDS011;700;51.906;8.404;2022-12-05T21:05:01;13.73;;;12.23;;
1410;SDS011;700;51.906;8.404;2022-12-05T21:10:02;14.10;;;11.57;;
1410;SDS011;700;51.906;8.404;2022-12-05T21:15:03;13.60;;;12.10;;
1410;SDS011;700;51.906;8.404;2022-12-05T21:20:06;16.17;;;12.67;;
1410;SDS011;700;51.906;8.404;2022-12-05T21:25:09;15.83;;;13.93;;
1410;SDS011;700;51.906;8.404;2022-12-05T21:30:13;16.50;;;12.73;;
1410;SDS011;700;51.906;8.404;2022-12-05T21:35:17;16.63;;;13.80;;
1410;SDS011;700;51.906;8.404;2022-12-05T21:40:18;18.67;;;13.90;;
1410;SDS011;700;51.906;8.404;2022-12-05T21:45:18;16.40;;;13.07;;
1410;SDS011;700;51.906;8.404;2022-12-05T21:50:19;14.90;;;11.57;;
1410;SDS011;700;51.906;8.404;2022-12-05T21:55:20;16.53;;;12.90;;
1410;SDS011;700;51.906;8.404;2022-12-05T22:00:23;14.33;;;11.93;;
1410;SDS011;700;51.906;8.404;2022-12-05T22:05:23;13.67;;;11.50;;
1410;SDS011;700;51.906;8.404;2022-12-05T22:10:26;14.33;;;12.77;;
1410;SDS011;700;51.906;8.404;2022-12-05T22:15:27;14.70;;;12.00;;
1410;SDS011;700;51.906;8.404;2022-12-05T22:20:27;15.77;;;12.57;;
1410;SDS011;700;51.906;8.404;2022-12-05T22:25:35;13.47;;;12.07;;
1410;SDS011;700;51.906;8.404;2022-12-05T22:30:35;12.67;;;11.30;;
1410;SDS011;700;51.906;8.404;2022-12-05T22:35:36;13.07;;;11.17;;
1410;SDS011;700;51.906;8.404;2022-12-05T22:40:37;13.57;;;10.70;;
1410;SDS011;700;51.906;8.404;2022-12-05T22:45:39;14.33;;;11.50;;
1410;SDS011;700;51.906;8.404;2022-12-05T22:50:50;13.80;;;11.13;;
1410;SDS011;700;51.906;8.404;2022-12-05T22:55:59;12.77;;;11.43;;
1410;SDS011;700;51.906;8.404;2022-12-05T23:01:08;13.17;;;10.70;;
1410;SDS011;700;51.906;8.404;2022-12-05T23:06:11;12.53;;;11.07;;
1410;SDS011;700;51.906;8.404;2022-12-05T23:11:12;12.83;;;11.23;;
1410;SDS011;700;51.906;8.404;2022-12-05T23:16:19;14.73;;;10.27;;
1410;SDS011;700;51.906;8.404;2022-12-05T23:21:26;11.77;;;10.57;;
1410;SDS011;700;51.906;8.404;2022-12-05T23:26:32;11.40;;;9.80;;
1410;SDS011;700;51.906;8.404;2022-12-05T23:31:34;11.43;;;9.30;;
1410;SDS011;700;51.906;8.404;2022-12-05T23:36:35;10.80;;;9.47;;
1410;SDS011;700;51.906;8.404;2022-12-05T23:41:36;11.80;;;9.90;;
1410;SDS011;700;51.906;8.404;2022-12-05T23:46:36;12.60;;;9.87;;
1410;SDS011;700;51.906;8.404;2022-12-05T23:51:37;11.70;;;8.97;;
1410;SDS011;700;51.906;8.404;2022-12-05T23:56:39;10.77;;;9.37;;
